Time;durP1;ratioP1;P1;durP2;ratioP2;P2;SDS_P1;SDS_P2;PMS_P1;PMS_P2;Temp;Humidity;BMP_temperature;BMP_pressure;BME280_temperature;BME280_humidity;BME280_pressure;Samples;Min_cycle;Max_cycle;Signal;HPM_P1;HPM_P2
2023/10/21 00:01:47;;;;;;;24.87;18.27;;;6.50;86.50;;;;;;6236971;28;20783;-84
2023/10/21 00:04:51;;;;;;;23.17;17.93;;;6.60;86.60;;;;;;6234501;28;20238;-84
2023/10/21 00:07:54;;;;;;;25.70;18.00;;;6.60;86.70;;;;;;6237267;28;20369;-83
2023/10/21 00:11:04;;;;;;;26.07;18.40;;;6.60;86.70;;;;;;6233230;28;20313;-80
2023/10/21 00:14:08;;;;;;;27.73;17.93;;;6.70;86.70;;;;;;6239672;28;20627;-82
2023/10/21 00:17:12;;;;;;;23.53;18.30;;;6.70;86.60;;;;;;6237345;28;20846;-81
2023/10/21 00:20:16;;;;;;;23.93;18.13;;;6.60;86.60;;;;;;6252235;28;20234;-82
2023/10/21 00:23:19;;;;;;;28.27;18.60;;;6.60;86.70;;;;;;6232023;28;20238;-82
2023/10/21 00:26:22;;;;;;;25.90;18.50;;;6.70;86.70;;;;;;6232282;28;20238;-80
2023/10/21 00:29:26;;;;;;;28.60;19.70;;;6.70;86.50;;;;;;6248227;28;20300;-83
2023/10/21 00:32:30;;;;;;;22.93;18.17;;;6.70;86.50;;;;;;6255943;28;20242;-79
2023/10/21 00:35:33;;;;;;;24.77;19.13;;;6.80;86.40;;;;;;6225835;28;20238;-82
2023/10/21 00:38:36;;;;;;;30.80;20.30;;;6.80;86.40;;;;;;6231532;28;20668;-81
2023/10/21 00:41:40;;;;;;;27.63;20.20;;;6.70;86.40;;;;;;6221483;28;20290;-82
2023/10/21 00:44:43;;;;;;;29.23;21.07;;;6.70;86.60;;;;;;6227475;28;20722;-83
2023/10/21 00:47:48;;;;;;;31.07;20.20;;;6.70;86.60;;;;;;6224641;28;20243;-84
2023/10/21 00:50:51;;;;;;;27.53;19.73;;;6.70;86.70;;;;;;6233544;28;20240;-80
2023/10/21 00:53:56;;;;;;;29.43;20.70;;;6.70;86.70;;;;;;6230408;28;20235;-81
2023/10/21 00:57:00;;;;;;;28.93;20.10;;;6.70;86.80;;;;;;6239053;28;20280;-81
2023/10/21 01:00:10;;;;;;;30.00;21.20;;;6.70;86.90;;;;;;6221705;28;20290;-80
2023/10/21 01:03:15;;;;;;;29.43;20.73;;;6.70;86.80;;;;;;6224967;28;20243;-78
2023/10/21 01:06:19;;;;;;;33.70;22.13;;;6.70;86.80;;;;;;6224011;28;20241;-83
2023/10/21 01:09:22;;;;;;;29.63;21.00;;;6.80;86.80;;;;;;6252063;28;20234;-76
2023/10/21 01:12:25;;;;;;;32.30;22.23;;;6.80;86.80;;;;;;6235227;28;20234;-79
2023/10/21 01:15:28;;;;;;;28.67;21.17;;;6.80;86.60;;;;;;6223432;28;20632;-83
2023/10/21 01:18:38;;;;;;;28.47;20.67;;;6.70;86.70;;;;;;6231136;28;20621;-80
2023/10/21 01:21:41;;;;;;;27.40;20.40;;;6.80;86.90;;;;;;6228637;28;20226;-82
2023/10/21 01:24:46;;;;;;;30.43;22.30;;;6.80;86.90;;;;;;6216234;28;20317;-83
2023/10/21 01:27:53;;;;;;;30.43;22.40;;;6.80;86.90;;;;;;6232952;28;20353;-84
2023/10/21 01:30:57;;;;;;;32.40;21.83;;;6.70;87.00;;;;;;6231408;28;20231;-82
2023/10/21 01:34:00;;;;;;;36.07;23.90;;;6.80;86.90;;;;;;6232277;28;20238;-81
2023/10/21 01:37:03;;;;;;;32.87;23.70;;;6.80;86.90;;;;;;6232585;28;20239;-82
2023/10/21 01:40:10;;;;;;;35.57;24.07;;;6.80;86.90;;;;;;6231551;28;20769;-83
2023/10/21 01:43:16;;;;;;;32.03;22.17;;;6.90;87.00;;;;;;6220979;28;20239;-83
2023/10/21 01:46:19;;;;;;;36.30;23.53;;;6.90;86.90;;;;;;6235563;28;20745;-85
2023/10/21 01:49:22;;;;;;;33.07;23.13;;;6.90;86.90;;;;;;6235295;28;20250;-80
2023/10/21 01:52:25;;;;;;;36.90;22.43;;;6.90;86.80;;;;;;6234036;28;20249;-81
2023/10/21 01:55:30;;;;;;;33.27;22.80;;;6.90;86.80;;;;;;6230542;28;20242;-84
2023/10/21 01:58:33;;;;;;;29.97;22.93;;;6.90;86.90;;;;;;6244659;28;20861;-80
2023/10/21 02:01:36;;;;;;;31.83;23.53;;;6.90;87.00;;;;;;6235988;28;20706;-79
2023/10/21 02:04:40;;;;;;;33.07;23.23;;;6.90;87.00;;;;;;6242875;28;20249;-85
2023/10/21 02:07:43;;;;;;;36.50;22.53;;;6.90;87.00;;;;;;6254622;28;20226;-83
2023/10/21 02:10:47;;;;;;;34.60;22.83;;;6.90;86.90;;;;;;6269935;28;20225;-81
2023/10/21 02:13:51;;;;;;;33.40;22.90;;;7.00;87.00;;;;;;6272368;28;20241;-78
2023/10/21 02:16:55;;;;;;;40.70;24.83;;;7.00;87.10;;;;;;6262980;28;20223;-76
2023/10/21 02:19:58;;;;;;;34.27;24.30;;;7.00;87.10;;;;;;6263033;28;20235;-82
2023/10/21 02:23:01;;;;;;;34.37;24.37;;;7.00;87.00;;;;;;6246288;28;20234;-81
2023/10/21 02:26:06;;;;;;;35.60;23.50;;;7.00;87.10;;;;;;6255607;28;20234;-82
2023/10/21 02:29:10;;;;;;;31.27;23.23;;;7.00;87.00;;;;;;6247986;28;20231;-82
2023/10/21 02:32:13;;;;;;;37.90;24.33;;;7.00;87.00;;;;;;6241943;28;20730;-81
2023/10/21 02:35:17;;;;;;;28.53;22.27;;;7.00;86.90;;;;;;6251275;28;20272;-81
2023/10/21 02:38:20;;;;;;;27.23;20.83;;;7.00;87.00;;;;;;6254236;28;20234;-81
2023/10/21 02:41:25;;;;;;;37.60;24.87;;;7.00;87.10;;;;;;6267356;28;20233;-81
2023/10/21 02:44:29;;;;;;;39.40;24.53;;;7.00;87.10;;;;;;6267583;28;20874;-82
2023/10/21 02:47:34;;;;;;;31.70;21.63;;;7.00;87.00;;;;;;6257090;28;20241;-83
2023/10/21 02:50:37;;;;;;;32.43;23.33;;;7.00;87.10;;;;;;6277562;28;20377;-81
2023/10/21 02:53:40;;;;;;;35.07;23.97;;;7.10;87.10;;;;;;6268729;28;20243;-79
2023/10/21 02:56:45;;;;;;;44.47;24.63;;;7.10;87.10;;;;;;6238029;28;20234;-79
2023/10/21 02:59:48;;;;;;;35.83;23.97;;;7.00;87.00;;;;;;6249071;28;20230;-82
2023/10/21 03:02:51;;;;;;;43.27;24.47;;;7.00;87.10;;;;;;6230860;28;20238;-83
2023/10/21 03:05:55;;;;;;;41.53;25.07;;;7.10;87.00;;;;;;6245757;28;20229;-83
2023/10/21 03:08:58;;;;;;;38.13;23.30;;;7.00;87.20;;;;;;6241161;28;20235;-82
2023/10/21 03:12:02;;;;;;;34.63;23.30;;;7.00;87.10;;;;;;6266896;28;20234;-81
2023/10/21 03:15:07;;;;;;;39.70;23.63;;;7.00;87.10;;;;;;6275946;28;20253;-81
2023/10/21 03:18:10;;;;;;;36.77;24.17;;;7.00;87.20;;;;;;6251589;28;20270;-83
2023/10/21 03:21:14;;;;;;;36.53;23.43;;;7.00;87.30;;;;;;6251603;28;20231;-82
2023/10/21 03:24:17;;;;;;;34.60;22.20;;;7.00;87.30;;;;;;6243438;28;20231;-80
2023/10/21 03:27:22;;;;;;;34.23;23.60;;;7.00;87.30;;;;;;6251041;28;20243;-83
2023/10/21 03:30:25;;;;;;;54.03;25.07;;;7.10;87.20;;;;;;6255001;28;20292;-81
2023/10/21 03:33:29;;;;;;;36.13;22.93;;;7.00;87.20;;;;;;6245786;28;20768;-84
2023/10/21 03:36:32;;;;;;;32.37;23.43;;;7.00;87.50;;;;;;6252332;28;20238;-79
2023/10/21 03:39:36;;;;;;;64.00;24.70;;;7.00;87.50;;;;;;6267184;28;20240;-78
2023/10/21 03:42:40;;;;;;;34.10;23.40;;;7.10;87.50;;;;;;6256497;28;20967;-80
2023/10/21 03:45:43;;;;;;;36.80;23.57;;;7.00;87.50;;;;;;6251585;28;20262;-81
2023/10/21 03:48:46;;;;;;;50.77;24.77;;;7.00;87.50;;;;;;6213906;28;20235;-82
2023/10/21 03:51:50;;;;;;;50.37;24.47;;;7.00;87.50;;;;;;6224825;28;20235;-81
2023/10/21 03:54:53;;;;;;;42.70;24.03;;;7.10;87.50;;;;;;6240973;28;20328;-83
2023/10/21 03:57:58;;;;;;;35.43;22.37;;;7.10;87.50;;;;;;6242146;28;20682;-85
2023/10/21 04:01:01;;;;;;;43.87;23.50;;;7.10;87.50;;;;;;6237228;28;20280;-81
2023/10/21 04:04:06;;;;;;;31.13;23.03;;;7.00;87.50;;;;;;6248730;28;20234;-82
2023/10/21 04:07:09;;;;;;;41.67;24.77;;;7.10;87.60;;;;;;6245369;28;20860;-82
2023/10/21 04:10:12;;;;;;;32.83;23.17;;;7.10;87.60;;;;;;6234254;28;20230;-82
2023/10/21 04:13:18;;;;;;;54.67;25.87;;;7.20;87.60;;;;;;6240823;28;20894;-83
2023/10/21 04:16:21;;;;;;;36.33;23.57;;;7.20;87.50;;;;;;6246100;28;20641;-83
2023/10/21 04:19:25;;;;;;;46.27;24.03;;;7.20;87.50;;;;;;6237695;28;20235;-82
2023/10/21 04:22:28;;;;;;;40.17;23.80;;;7.20;87.40;;;;;;6244810;28;20730;-82
2023/10/21 04:25:32;;;;;;;47.13;24.13;;;7.20;87.50;;;;;;6255895;28;20297;-81
2023/10/21 04:28:36;;;;;;;31.43;22.77;;;7.10;87.50;;;;;;6241570;28;20324;-79
2023/10/21 04:31:39;;;;;;;41.50;23.13;;;7.10;87.60;;;;;;6243574;28;20238;-79
2023/10/21 04:34:42;;;;;;;55.50;23.93;;;7.20;87.70;;;;;;6252415;28;20247;-82
2023/10/21 04:37:45;;;;;;;40.77;24.63;;;7.20;87.60;;;;;;6245475;28;20241;-82
2023/10/21 04:40:49;;;;;;;42.30;24.27;;;7.20;87.60;;;;;;6248285;28;20273;-84
2023/10/21 04:43:56;;;;;;;30.57;22.97;;;7.20;87.50;;;;;;6248735;28;20242;-81
2023/10/21 04:46:59;;;;;;;30.87;22.30;;;7.20;87.60;;;;;;6232951;28;20234;-84
2023/10/21 04:50:04;;;;;;;34.13;21.93;;;7.20;87.60;;;;;;6240211;28;20237;-84
2023/10/21 04:53:07;;;;;;;34.67;23.70;;;7.20;87.50;;;;;;6238921;28;20231;-82
2023/10/21 04:56:10;;;;;;;35.37;24.07;;;7.20;87.50;;;;;;6248010;28;20262;-83
2023/10/21 04:59:15;;;;;;;34.67;23.33;;;7.20;87.60;;;;;;6253411;28;20226;-81
2023/10/21 05:02:18;;;;;;;41.43;23.93;;;7.20;87.60;;;;;;6240305;28;20235;-86
2023/10/21 05:05:21;;;;;;;31.97;22.43;;;7.20;87.60;;;;;;6248472;28;20233;-84
2023/10/21 05:08:24;;;;;;;32.43;22.70;;;7.20;87.60;;;;;;6247943;28;20877;-84
2023/10/21 05:11:28;;;;;;;28.93;22.83;;;7.20;87.60;;;;;;6240231;28;20237;-83
2023/10/21 05:14:32;;;;;;;34.43;23.00;;;7.20;87.60;;;;;;6233306;28;20302;-84
2023/10/21 05:17:36;;;;;;;48.17;23.50;;;7.20;87.60;;;;;;6239857;28;20325;-81
2023/10/21 05:20:40;;;;;;;45.23;23.97;;;7.20;87.70;;;;;;6226130;28;20241;-82
2023/10/21 05:23:43;;;;;;;31.57;22.73;;;7.20;87.70;;;;;;6247498;28;20627;-84
2023/10/21 05:26:46;;;;;;;63.03;25.77;;;7.20;87.80;;;;;;6236176;28;26002;-81
2023/10/21 05:29:51;;;;;;;40.03;23.27;;;7.20;87.70;;;;;;6246467;28;20258;-85
2023/10/21 05:32:54;;;;;;;30.83;22.00;;;7.20;87.80;;;;;;6214651;28;20244;-83
2023/10/21 05:35:58;;;;;;;36.20;23.73;;;7.20;87.80;;;;;;6237705;28;20242;-85
2023/10/21 05:39:03;;;;;;;42.10;23.87;;;7.20;87.70;;;;;;6238343;28;20230;-83
2023/10/21 05:42:09;;;;;;;38.67;24.90;;;7.20;87.70;;;;;;6243503;28;20234;-82
2023/10/21 05:45:15;;;;;;;29.23;21.67;;;7.20;87.60;;;;;;6264786;28;20226;-80
2023/10/21 05:48:18;;;;;;;33.17;22.97;;;7.20;87.70;;;;;;6269773;28;20226;-80
2023/10/21 05:51:21;;;;;;;33.10;21.63;;;7.20;87.80;;;;;;6274959;28;20226;-79
2023/10/21 05:54:24;;;;;;;27.20;21.30;;;7.20;87.80;;;;;;6268684;28;20303;-81
2023/10/21 05:57:28;;;;;;;26.40;21.17;;;7.20;87.80;;;;;;6262553;28;20313;-83
2023/10/21 06:00:32;;;;;;;36.20;23.90;;;7.30;87.80;;;;;;6246732;28;20249;-83
2023/10/21 06:03:36;;;;;;;39.93;23.93;;;7.30;87.80;;;;;;6231921;28;20316;-83
2023/10/21 06:06:40;;;;;;;34.77;22.07;;;7.40;87.90;;;;;;6238911;28;20230;-83
2023/10/21 06:09:43;;;;;;;38.63;22.77;;;7.40;87.90;;;;;;6239530;28;20313;-82
2023/10/21 06:12:47;;;;;;;28.77;21.43;;;7.50;87.80;;;;;;6251430;28;20229;-83
2023/10/21 06:15:53;;;;;;;36.83;20.93;;;7.50;87.60;;;;;;6242393;28;20384;-85
2023/10/21 06:18:56;;;;;;;41.83;21.07;;;7.50;87.80;;;;;;6237316;28;20235;-86
2023/10/21 06:21:59;;;;;;;38.57;22.33;;;7.50;87.80;;;;;;6241728;28;20689;-83
2023/10/21 06:25:04;;;;;;;31.67;21.07;;;7.50;87.80;;;;;;6237691;28;20238;-84
2023/10/21 06:28:07;;;;;;;30.50;22.17;;;7.50;87.80;;;;;;6242197;28;20242;-84
2023/10/21 06:31:12;;;;;;;32.07;21.83;;;7.60;87.80;;;;;;6248280;28;20442;-82
2023/10/21 06:34:15;;;;;;;24.83;19.97;;;7.60;87.70;;;;;;6233695;28;20233;-85
2023/10/21 06:37:18;;;;;;;26.57;21.00;;;7.60;87.80;;;;;;6236032;28;20241;-84
2023/10/21 06:40:21;;;;;;;27.77;20.90;;;7.60;87.70;;;;;;6235285;28;20273;-83
2023/10/21 06:43:44;;;;;;;45.53;22.00;;;7.60;87.60;;;;;;6232532;28;20239;-84
2023/10/21 06:46:49;;;;;;;26.23;20.67;;;7.70;87.50;;;;;;6242369;28;20782;-83
2023/10/21 06:49:52;;;;;;;31.63;20.00;;;7.70;87.60;;;;;;6237943;28;20254;-83
2023/10/21 06:52:56;;;;;;;24.13;19.43;;;7.80;87.60;;;;;;6246599;28;20246;-82
2023/10/21 06:55:59;;;;;;;32.63;21.03;;;7.80;87.60;;;;;;6219176;28;20269;-85
2023/10/21 06:59:03;;;;;;;28.10;20.83;;;7.80;87.50;;;;;;6204896;28;20246;-84
2023/10/21 07:02:08;;;;;;;27.67;21.53;;;7.80;87.50;;;;;;6229671;28;20263;-84
2023/10/21 07:05:11;;;;;;;34.93;22.23;;;7.80;87.50;;;;;;6234693;28;20306;-82
2023/10/21 07:08:14;;;;;;;34.17;21.90;;;7.90;87.60;;;;;;6232055;28;20787;-84
2023/10/21 07:11:17;;;;;;;25.50;20.87;;;8.00;87.60;;;;;;6237930;28;20242;-82
2023/10/21 07:14:20;;;;;;;23.90;19.97;;;8.00;87.70;;;;;;6239156;28;20238;-82
2023/10/21 07:17:25;;;;;;;27.90;21.97;;;8.00;87.70;;;;;;6231935;28;20249;-82
2023/10/21 07:20:28;;;;;;;25.00;20.40;;;8.00;87.40;;;;;;6241557;28;20417;-84
2023/10/21 07:23:32;;;;;;;30.13;21.40;;;8.00;87.50;;;;;;6235776;28;20277;-81
2023/10/21 07:26:35;;;;;;;24.47;19.53;;;8.00;87.50;;;;;;6231643;28;20334;-83
2023/10/21 07:29:38;;;;;;;28.90;21.10;;;8.10;87.60;;;;;;6231208;28;20241;-84
2023/10/21 07:32:42;;;;;;;27.10;20.40;;;8.20;87.50;;;;;;6252697;28;20964;-84
2023/10/21 07:35:49;;;;;;;22.13;19.30;;;8.30;87.40;;;;;;6226879;28;20254;-85
2023/10/21 07:38:53;;;;;;;25.67;20.30;;;8.40;87.50;;;;;;6239979;28;20304;-83
2023/10/21 07:41:57;;;;;;;20.27;17.67;;;8.40;87.30;;;;;;6247405;28;20642;-84
2023/10/21 07:45:00;;;;;;;20.60;18.30;;;8.40;87.30;;;;;;6236481;28;20241;-84
2023/10/21 07:48:06;;;;;;;25.70;18.90;;;8.40;87.30;;;;;;6235785;28;20235;-83
2023/10/21 07:51:09;;;;;;;28.77;20.93;;;8.60;87.30;;;;;;6233911;28;20237;-85
2023/10/21 07:54:15;;;;;;;23.50;19.53;;;8.50;86.60;;;;;;6242001;28;20238;-82
2023/10/21 07:57:18;;;;;;;23.63;19.23;;;8.50;87.00;;;;;;6225473;28;20231;-84
2023/10/21 08:00:21;;;;;;;22.87;19.00;;;8.60;87.10;;;;;;6243005;28;20246;-82
2023/10/21 08:03:26;;;;;;;21.90;18.87;;;8.70;87.20;;;;;;6237941;28;20451;-83
2023/10/21 08:06:29;;;;;;;20.33;18.27;;;8.80;87.10;;;;;;6246655;28;20234;-82
2023/10/21 08:09:33;;;;;;;22.23;19.50;;;9.00;87.00;;;;;;6230459;28;20314;-84
2023/10/21 08:12:36;;;;;;;19.90;17.77;;;9.20;86.80;;;;;;6243405;28;20707;-84
2023/10/21 08:15:39;;;;;;;19.93;17.93;;;9.20;86.50;;;;;;6235970;28;20241;-82
2023/10/21 08:18:48;;;;;;;23.60;17.93;;;9.40;86.00;;;;;;6230258;28;20253;-82
2023/10/21 08:21:51;;;;;;;21.93;17.80;;;9.40;85.60;;;;;;6236215;28;20384;-82
2023/10/21 08:24:54;;;;;;;18.87;16.97;;;9.30;85.40;;;;;;6228689;28;20318;-83
2023/10/21 08:27:57;;;;;;;20.53;18.37;;;9.20;85.30;;;;;;6233354;28;20324;-82
2023/10/21 08:31:00;;;;;;;18.30;16.57;;;9.20;85.30;;;;;;6228153;28;20397;-81
2023/10/21 08:34:09;;;;;;;19.67;17.70;;;9.40;85.70;;;;;;6243780;28;20643;-83
2023/10/21 08:37:15;;;;;;;19.37;17.40;;;9.50;85.40;;;;;;6240140;28;20285;-85
2023/10/21 08:40:19;;;;;;;19.03;16.70;;;9.70;85.20;;;;;;6226135;28;20336;-84
2023/10/21 08:43:23;;;;;;;19.07;17.27;;;9.80;84.80;;;;;;6240418;28;20242;-83
2023/10/21 08:46:27;;;;;;;19.30;17.37;;;9.90;84.30;;;;;;6227195;28;20255;-83
2023/10/21 08:49:37;;;;;;;17.27;15.60;;;10.00;84.70;;;;;;6222114;28;20239;-84
2023/10/21 08:52:41;;;;;;;17.63;15.80;;;10.00;84.50;;;;;;6233290;28;20246;-83
2023/10/21 08:55:45;;;;;;;20.07;18.07;;;10.20;84.20;;;;;;6228875;28;20860;-83
2023/10/21 08:58:48;;;;;;;19.33;16.97;;;10.30;83.50;;;;;;6229024;28;20738;-83
2023/10/21 09:01:52;;;;;;;17.73;16.03;;;10.30;83.50;;;;;;6237880;28;20762;-84
2023/10/21 09:04:56;;;;;;;17.90;16.20;;;10.50;83.70;;;;;;6240543;28;20276;-83
2023/10/21 09:08:00;;;;;;;17.37;15.77;;;10.40;83.20;;;;;;6242397;28;20388;-84
2023/10/21 09:11:06;;;;;;;16.57;15.10;;;10.60;83.20;;;;;;6218367;28;20238;-82
2023/10/21 09:14:09;;;;;;;17.27;15.63;;;10.80;83.10;;;;;;6221716;28;20654;-82
2023/10/21 09:17:12;;;;;;;19.07;15.90;;;11.00;82.70;;;;;;6219369;28;20321;-83
2023/10/21 09:20:19;;;;;;;16.20;14.77;;;11.10;82.50;;;;;;6235474;28;20230;-83
2023/10/21 09:23:24;;;;;;;17.53;15.63;;;11.30;81.50;;;;;;6234594;28;20245;-83
2023/10/21 09:26:34;;;;;;;16.67;15.10;;;11.30;81.90;;;;;;6237118;28;20389;-83
2023/10/21 09:29:38;;;;;;;17.23;15.60;;;11.40;81.60;;;;;;6232623;28;20795;-83
2023/10/21 09:32:42;;;;;;;15.03;13.67;;;11.50;81.30;;;;;;6239198;28;20249;-83
2023/10/21 09:36:00;;;;;;;15.50;14.07;;;11.70;81.20;;;;;;6221349;28;20239;-84
2023/10/21 09:39:16;;;;;;;15.63;14.17;;;11.90;81.00;;;;;;6221100;28;20242;-86
2023/10/21 09:42:21;;;;;;;16.00;14.10;;;11.90;80.40;;;;;;6246243;28;20233;-83
2023/10/21 09:45:28;;;;;;;15.63;14.17;;;12.00;80.20;;;;;;6237113;28;20243;-84
2023/10/21 09:48:33;;;;;;;15.90;14.47;;;12.10;80.10;;;;;;6226624;28;20241;-80
2023/10/21 09:51:46;;;;;;;15.43;13.90;;;12.20;80.00;;;;;;6226822;28;20242;-77
2023/10/21 09:54:57;;;;;;;13.73;12.37;;;12.30;79.80;;;;;;6230814;28;20301;-83
2023/10/21 09:58:01;;;;;;;13.30;12.30;;;12.40;79.30;;;;;;6236328;28;20245;-83
2023/10/21 10:01:05;;;;;;;13.67;12.37;;;12.50;79.70;;;;;;6230701;28;20238;-83
2023/10/21 10:04:10;;;;;;;13.07;12.07;;;12.70;79.60;;;;;;6226315;28;20751;-83
2023/10/21 10:07:17;;;;;;;13.30;12.17;;;12.80;78.90;;;;;;6224303;28;20734;-83
2023/10/21 10:10:41;;;;;;;13.43;12.43;;;12.70;78.70;;;;;;6238761;28;20724;-82
2023/10/21 10:13:48;;;;;;;11.67;10.80;;;12.80;78.60;;;;;;6244029;28;20582;-82
2023/10/21 10:16:52;;;;;;;12.57;11.47;;;13.00;79.00;;;;;;6256508;28;20241;-84
2023/10/21 10:19:55;;;;;;;14.60;12.40;;;13.10;78.90;;;;;;6262369;28;20672;-84
2023/10/21 10:23:02;;;;;;;11.77;10.70;;;13.30;78.60;;;;;;6249127;28;20235;-83
2023/10/21 10:26:05;;;;;;;11.67;10.77;;;13.40;78.20;;;;;;6242784;28;20325;-84
2023/10/21 10:29:19;;;;;;;10.93;10.13;;;13.50;77.70;;;;;;6240146;28;20327;-82
2023/10/21 10:32:29;;;;;;;11.20;10.40;;;13.50;77.90;;;;;;6246638;28;20238;-81
2023/10/21 10:35:37;;;;;;;12.43;11.37;;;13.50;78.10;;;;;;6238524;28;20763;-83
2023/10/21 10:38:46;;;;;;;10.77;9.97;;;13.70;78.00;;;;;;6262029;28;20231;-80
2023/10/21 10:41:49;;;;;;;10.47;9.77;;;13.90;78.00;;;;;;6272824;28;20421;-81
2023/10/21 10:44:53;;;;;;;10.73;9.93;;;14.10;77.30;;;;;;6285505;28;20273;-80
2023/10/21 10:48:01;;;;;;;9.73;9.03;;;14.30;77.40;;;;;;6260331;28;20237;-83
2023/10/21 10:51:10;;;;;;;11.40;10.23;;;14.70;76.80;;;;;;6248750;28;20744;-84
2023/10/21 10:54:18;;;;;;;9.50;8.80;;;15.00;75.60;;;;;;6242914;28;20281;-84
2023/10/21 10:57:22;;;;;;;9.33;8.63;;;15.30;75.30;;;;;;6247466;28;20319;-84
2023/10/21 11:00:28;;;;;;;9.77;8.97;;;15.60;74.50;;;;;;6251767;28;20243;-83
2023/10/21 11:03:32;;;;;;;6.70;6.13;;;15.70;74.30;;;;;;6240858;28;20243;-84
2023/10/21 11:06:39;;;;;;;5.53;5.33;;;15.80;74.40;;;;;;6232776;28;20231;-84
2023/10/21 11:09:44;;;;;;;4.03;3.93;;;15.90;74.00;;;;;;6242596;28;20238;-83
2023/10/21 11:12:48;;;;;;;5.33;5.03;;;16.00;73.90;;;;;;6234689;28;20246;-85
2023/10/21 11:15:54;;;;;;;3.13;3.13;;;16.00;73.70;;;;;;6252918;28;20379;-85
2023/10/21 11:19:00;;;;;;;2.43;2.43;;;16.10;72.80;;;;;;6254742;28;20241;-87
2023/10/21 11:22:08;;;;;;;2.50;2.30;;;16.10;72.50;;;;;;6246081;28;20305;-82
2023/10/21 11:25:13;;;;;;;2.20;2.10;;;16.10;72.20;;;;;;6250682;28;20235;-84
2023/10/21 11:28:17;;;;;;;2.10;2.10;;;16.20;72.30;;;;;;6230336;28;20242;-84
2023/10/21 11:31:20;;;;;;;2.17;1.90;;;16.20;72.10;;;;;;6233108;28;20316;-82
2023/10/21 11:34:23;;;;;;;1.97;1.83;;;16.30;71.90;;;;;;6230361;28;20239;-81
2023/10/21 11:37:27;;;;;;;2.40;1.70;;;16.30;71.30;;;;;;6226628;28;20243;-83
2023/10/21 11:40:32;;;;;;;1.53;1.53;;;16.30;71.50;;;;;;6239686;28;20315;-82
2023/10/21 11:43:36;;;;;;;2.27;2.20;;;16.40;70.70;;;;;;6242966;28;20312;-84
2023/10/21 11:46:39;;;;;;;2.17;2.17;;;16.50;70.80;;;;;;6244125;28;20250;-84
2023/10/21 11:49:45;;;;;;;2.20;2.20;;;16.60;70.50;;;;;;6232878;28;20245;-83
2023/10/21 11:52:48;;;;;;;1.50;1.50;;;16.60;70.30;;;;;;6238263;28;20231;-83
2023/10/21 11:56:52;;;;;;;3.33;3.23;;;16.70;70.10;;;;;;6230954;28;20390;-82
2023/10/21 12:23:59;;;;;;;2.13;1.77;;;17.50;65.20;;;;;;6227214;28;20239;-85
2023/10/21 12:34:19;;;;;;;2.27;1.57;;;17.50;65.40;;;;;;6206436;28;20246;-83
2023/10/21 12:37:29;;;;;;;2.23;1.60;;;17.30;65.80;;;;;;6243898;28;20822;-83
2023/10/21 12:40:33;;;;;;;1.43;1.43;;;17.20;66.70;;;;;;6234586;28;20246;-82
2023/10/21 12:43:36;;;;;;;2.07;1.97;;;17.20;66.50;;;;;;6215720;28;20250;-83
2023/10/21 12:46:41;;;;;;;1.50;1.40;;;17.20;67.20;;;;;;6202990;28;20228;-82
2023/10/21 12:49:46;;;;;;;2.93;1.63;;;17.30;67.40;;;;;;6200743;28;20318;-82
2023/10/21 12:52:49;;;;;;;1.60;1.60;;;17.40;66.90;;;;;;6200753;28;20240;-84
2023/10/21 12:55:52;;;;;;;1.73;1.63;;;17.40;66.80;;;;;;6206228;28;20327;-85
2023/10/21 12:58:55;;;;;;;2.90;2.80;;;17.40;67.10;;;;;;6204046;28;21076;-85
2023/10/21 13:01:59;;;;;;;4.53;1.97;;;17.40;66.60;;;;;;6216940;28;21044;-84
2023/10/21 13:05:04;;;;;;;1.57;1.43;;;17.50;66.20;;;;;;6248916;28;20711;-83
2023/10/21 13:08:09;;;;;;;1.30;1.30;;;17.60;65.90;;;;;;6252067;28;20279;-82
2023/10/21 13:11:14;;;;;;;1.50;1.50;;;17.60;65.50;;;;;;6243842;28;20333;-83
2023/10/21 13:14:18;;;;;;;1.50;1.50;;;17.60;65.10;;;;;;6233885;28;20238;-82
2023/10/21 13:17:23;;;;;;;1.93;1.50;;;17.70;65.40;;;;;;6242750;28;20253;-84
2023/10/21 13:20:26;;;;;;;1.50;1.50;;;17.60;65.40;;;;;;6239102;28;20235;-84
2023/10/21 13:23:29;;;;;;;2.30;1.90;;;17.50;65.70;;;;;;6238151;28;20231;-82
2023/10/21 13:26:32;;;;;;;1.83;1.80;;;17.50;66.20;;;;;;6249335;28;20230;-83
2023/10/21 13:29:36;;;;;;;1.93;1.67;;;17.50;66.10;;;;;;6237781;28;20813;-82
2023/10/21 13:32:40;;;;;;;1.93;1.83;;;17.50;66.00;;;;;;6237560;28;20257;-82
2023/10/21 13:35:44;;;;;;;1.60;1.50;;;17.40;66.40;;;;;;6239756;28;20234;-83
2023/10/21 13:38:47;;;;;;;1.70;1.60;;;17.20;66.20;;;;;;6228798;28;20312;-85
2023/10/21 13:41:50;;;;;;;1.80;1.60;;;17.40;66.80;;;;;;6239806;28;20239;-82
2023/10/21 13:44:53;;;;;;;1.50;1.50;;;17.50;66.00;;;;;;6242004;28;20235;-86
2023/10/21 13:48:02;;;;;;;1.53;1.53;;;17.60;65.80;;;;;;6240426;28;20245;-84
2023/10/21 13:51:08;;;;;;;1.57;1.57;;;17.80;65.70;;;;;;6251144;28;20299;-82
2023/10/21 13:54:13;;;;;;;1.30;1.30;;;17.70;65.10;;;;;;6239719;28;20730;-83
2023/10/21 13:57:16;;;;;;;2.07;1.90;;;17.60;65.80;;;;;;6243907;28;20234;-82
2023/10/21 14:00:35;;;;;;;1.63;1.53;;;17.60;65.80;;;;;;6244962;28;20249;-85
2023/10/21 14:03:40;;;;;;;1.57;1.57;;;17.60;66.30;;;;;;6242754;28;20880;-86
2023/10/21 14:06:43;;;;;;;1.67;1.67;;;17.50;66.70;;;;;;6249655;28;20262;-84
2023/10/21 14:09:47;;;;;;;1.70;1.70;;;17.40;67.10;;;;;;6248753;28;20269;-83
2023/10/21 14:12:50;;;;;;;1.63;1.63;;;17.40;67.20;;;;;;6245480;28;20231;-84
2023/10/21 14:15:55;;;;;;;1.70;1.60;;;17.50;67.10;;;;;;6247647;28;20312;-83
2023/10/21 14:19:00;;;;;;;1.90;1.63;;;17.50;66.20;;;;;;6239443;28;20243;-84
2023/10/21 14:22:04;;;;;;;1.53;1.53;;;17.60;65.70;;;;;;6237863;28;20288;-79
2023/10/21 14:25:08;;;;;;;1.70;1.70;;;17.60;65.60;;;;;;6243002;28;20779;-84
2023/10/21 14:28:13;;;;;;;2.20;1.50;;;17.60;65.50;;;;;;6242810;28;20253;-84
2023/10/21 14:31:26;;;;;;;1.80;1.80;;;17.40;66.10;;;;;;6263526;28;20366;-79
2023/10/21 14:34:31;;;;;;;1.90;1.90;;;17.40;66.30;;;;;;6276283;28;20238;-78
2023/10/21 14:37:34;;;;;;;4.50;1.90;;;17.20;66.30;;;;;;6279048;28;20227;-78
2023/10/21 14:40:39;;;;;;;1.70;1.70;;;17.20;66.10;;;;;;6277958;28;20238;-80
2023/10/21 14:43:42;;;;;;;1.93;1.83;;;17.20;66.50;;;;;;6269888;28;20289;-81
2023/10/21 14:46:48;;;;;;;1.60;1.60;;;17.00;66.80;;;;;;6251497;28;21014;-81
2023/10/21 14:49:53;;;;;;;1.50;1.50;;;17.00;66.80;;;;;;6246877;28;20318;-84
2023/10/21 14:52:56;;;;;;;1.70;1.70;;;17.10;65.60;;;;;;6230023;28;20789;-83
2023/10/21 14:55:59;;;;;;;1.50;1.50;;;17.00;65.60;;;;;;6233159;28;20353;-83
2023/10/21 14:59:05;;;;;;;1.80;1.70;;;17.00;65.70;;;;;;6245428;28;20308;-85
2023/10/21 15:02:08;;;;;;;1.70;1.70;;;16.90;66.00;;;;;;6260860;28;20230;-85
2023/10/21 15:05:13;;;;;;;1.80;1.80;;;16.80;66.10;;;;;;6239489;28;20305;-85
2023/10/21 15:08:20;;;;;;;1.80;1.80;;;16.70;66.20;;;;;;6246695;28;20707;-82
2023/10/21 15:11:24;;;;;;;2.10;2.00;;;16.60;66.60;;;;;;6245072;28;20310;-83
2023/10/21 15:14:28;;;;;;;1.67;1.67;;;16.40;67.10;;;;;;6239139;28;20254;-84
2023/10/21 15:17:49;;;;;;;1.70;1.70;;;16.40;67.50;;;;;;6242410;28;20246;-84
2023/10/21 15:21:02;;;;;;;2.57;2.37;;;16.20;67.90;;;;;;6241277;28;20254;-84
2023/10/21 15:24:06;;;;;;;2.93;2.83;;;16.00;68.20;;;;;;6245999;28;20254;-83
2023/10/21 15:27:11;;;;;;;3.77;3.57;;;16.00;68.40;;;;;;6252705;28;20784;-83
2023/10/21 15:30:15;;;;;;;5.73;5.23;;;15.80;68.60;;;;;;6247340;28;20223;-83
2023/10/21 15:33:19;;;;;;;4.77;4.47;;;16.00;68.50;;;;;;6267635;28;20249;-82
2023/10/21 15:36:24;;;;;;;5.17;4.77;;;16.00;68.20;;;;;;6277874;28;20250;-82
2023/10/21 15:39:27;;;;;;;3.83;3.40;;;15.80;68.10;;;;;;6281752;28;20231;-79
2023/10/21 15:42:30;;;;;;;3.17;3.17;;;15.80;68.20;;;;;;6273504;28;20218;-80
2023/10/21 15:45:34;;;;;;;3.90;3.70;;;15.70;68.60;;;;;;6280728;28;20238;-78
2023/10/21 15:48:37;;;;;;;2.50;2.50;;;15.60;68.80;;;;;;6277944;28;20331;-78
2023/10/21 15:51:45;;;;;;;3.40;3.20;;;15.50;68.50;;;;;;6277467;28;20249;-79
2023/10/21 15:54:49;;;;;;;2.90;2.80;;;15.40;68.60;;;;;;6278289;28;20257;-79
2023/10/21 15:57:52;;;;;;;3.10;3.00;;;15.30;68.90;;;;;;6272127;28;20245;-80
2023/10/21 16:00:55;;;;;;;2.80;2.70;;;15.00;69.50;;;;;;6269670;28;20230;-81
2023/10/21 16:03:59;;;;;;;3.10;2.97;;;15.00;69.60;;;;;;6270821;28;20284;-79
2023/10/21 16:07:04;;;;;;;3.30;3.10;;;14.80;69.80;;;;;;6282043;28;20240;-80
2023/10/21 16:10:08;;;;;;;2.10;2.10;;;14.80;69.90;;;;;;6279363;28;20397;-81
2023/10/21 16:13:11;;;;;;;2.40;2.40;;;14.70;70.00;;;;;;6279199;28;20227;-79
2023/10/21 16:16:14;;;;;;;2.83;2.73;;;14.60;70.30;;;;;;6271387;28;20237;-80
2023/10/21 16:19:20;;;;;;;3.20;3.10;;;14.50;70.50;;;;;;6266263;28;20229;-79
2023/10/21 16:22:24;;;;;;;3.70;3.50;;;14.30;70.70;;;;;;6270315;28;20308;-78